sensor_id;sensor_type;location;lat;lon;timestamp;pressure;altitude;pressure_sealevel;temperature;humidity
47154;BME280;32907;41.412;2.164;2024-01-30T00:01:46;102219.63;;;19.94;51.64
47154;BME280;32907;41.412;2.164;2024-01-30T00:04:14;102219.78;;;19.88;51.68
47154;BME280;32907;41.412;2.164;2024-01-30T00:06:44;102223.34;;;19.88;51.73
47154;BME280;32907;41.412;2.164;2024-01-30T00:09:12;102230.47;;;19.89;51.43
47154;BME280;32907;41.412;2.164;2024-01-30T00:11:41;102220.63;;;19.88;51.42
47154;BME280;32907;41.412;2.164;2024-01-30T00:14:09;102221.94;;;19.86;51.48
47154;BME280;32907;41.412;2.164;2024-01-30T00:16:37;102220.81;;;19.81;51.39
47154;BME280;32907;41.412;2.164;2024-01-30T00:19:05;102215.03;;;19.78;51.29
47154;BME280;32907;41.412;2.164;2024-01-30T00:21:34;102217.75;;;19.78;51.57
47154;BME280;32907;41.412;2.164;2024-01-30T00:24:02;102217.50;;;19.79;51.18
47154;BME280;32907;41.412;2.164;2024-01-30T00:26:31;102214.78;;;19.79;51.53
47154;BME280;32907;41.412;2.164;2024-01-30T00:28:59;102206.13;;;19.82;51.45
47154;BME280;32907;41.412;2.164;2024-01-30T00:31:27;102208.03;;;19.82;50.90
47154;BME280;32907;41.412;2.164;2024-01-30T00:33:55;102210.75;;;19.82;51.00
47154;BME280;32907;41.412;2.164;2024-01-30T00:36:24;102206.59;;;19.79;50.67
47154;BME280;32907;41.412;2.164;2024-01-30T00:38:52;102202.59;;;19.82;50.85
47154;BME280;32907;41.412;2.164;2024-01-30T00:41:20;102204.97;;;19.78;50.68
47154;BME280;32907;41.412;2.164;2024-01-30T00:43:48;102192.34;;;19.72;50.55
47154;BME280;32907;41.412;2.164;2024-01-30T00:46:17;102199.19;;;19.75;50.51
47154;BME280;32907;41.412;2.164;2024-01-30T00:48:46;102196.72;;;19.73;50.37
47154;BME280;32907;41.412;2.164;2024-01-30T00:51:14;102196.72;;;19.73;50.63
47154;BME280;32907;41.412;2.164;2024-01-30T00:53:42;102196.66;;;19.68;50.19
47154;BME280;32907;41.412;2.164;2024-01-30T00:56:10;102197.97;;;19.66;49.99
47154;BME280;32907;41.412;2.164;2024-01-30T00:58:39;102193.34;;;19.66;50.23
47154;BME280;32907;41.412;2.164;2024-01-30T01:01:07;102199.63;;;19.67;50.38
47154;BME280;32907;41.412;2.164;2024-01-30T01:03:35;102192.53;;;19.66;50.40
47154;BME280;32907;41.412;2.164;2024-01-30T01:06:04;102198.53;;;19.68;49.98
47154;BME280;32907;41.412;2.164;2024-01-30T01:08:32;102192.75;;;19.64;50.56
47154;BME280;32907;41.412;2.164;2024-01-30T01:11:00;102187.81;;;19.61;50.36
47154;BME280;32907;41.412;2.164;2024-01-30T01:13:31;102194.09;;;19.62;50.15
47154;BME280;32907;41.412;2.164;2024-01-30T01:15:59;102200.34;;;19.62;50.48
47154;BME280;32907;41.412;2.164;2024-01-30T01:18:27;102191.72;;;19.65;50.13
47154;BME280;32907;41.412;2.164;2024-01-30T01:20:55;102189.47;;;19.62;50.34
47154;BME280;32907;41.412;2.164;2024-01-30T01:23:23;102188.63;;;19.62;49.77
47154;BME280;32907;41.412;2.164;2024-01-30T01:25:51;102185.66;;;19.63;50.19
47154;BME280;32907;41.412;2.164;2024-01-30T01:28:19;102179.41;;;19.63;49.97
47154;BME280;32907;41.412;2.164;2024-01-30T01:30:48;102187.31;;;19.64;49.78
47154;BME280;32907;41.412;2.164;2024-01-30T01:33:16;102187.31;;;19.64;50.20
47154;BME280;32907;41.412;2.164;2024-01-30T01:35:45;102181.31;;;19.62;50.10
47154;BME280;32907;41.412;2.164;2024-01-30T01:38:13;102181.00;;;19.59;49.94
47154;BME280;32907;41.412;2.164;2024-01-30T01:40:42;102182.63;;;19.60;49.98
47154;BME280;32907;41.412;2.164;2024-01-30T01:43:12;102180.63;;;19.55;50.05
47154;BME280;32907;41.412;2.164;2024-01-30T01:45:40;102178.16;;;19.53;49.90
47154;BME280;32907;41.412;2.164;2024-01-30T01:48:08;102181.94;;;19.52;50.33
47154;BME280;32907;41.412;2.164;2024-01-30T01:50:37;102182.19;;;19.51;49.89
47154;BME280;32907;41.412;2.164;2024-01-30T01:53:07;102180.38;;;19.56;50.20
47154;BME280;32907;41.412;2.164;2024-01-30T01:55:37;102127.59;;;19.24;50.17
47154;BME280;32907;41.412;2.164;2024-01-30T01:58:05;102148.22;;;19.37;50.07
47154;BME280;32907;41.412;2.164;2024-01-30T02:00:34;102171.88;;;19.53;49.93
47154;BME280;32907;41.412;2.164;2024-01-30T02:03:04;102168.59;;;19.51;50.00
47154;BME280;32907;41.412;2.164;2024-01-30T02:05:34;102162.53;;;19.49;49.80
47154;BME280;32907;41.412;2.164;2024-01-30T02:08:02;102162.31;;;19.50;49.94
47154;BME280;32907;41.412;2.164;2024-01-30T02:10:31;102169.16;;;19.53;49.86
47154;BME280;32907;41.412;2.164;2024-01-30T02:12:59;102169.16;;;19.53;49.91
47154;BME280;32907;41.412;2.164;2024-01-30T02:15:28;102167.00;;;19.55;50.08
47154;BME280;32907;41.412;2.164;2024-01-30T02:17:56;102159.66;;;19.55;50.13
47154;BME280;32907;41.412;2.164;2024-01-30T02:20:25;102151.50;;;19.55;49.75
47154;BME280;32907;41.412;2.164;2024-01-30T02:22:55;102157.75;;;19.56;49.86
47154;BME280;32907;41.412;2.164;2024-01-30T02:25:39;102148.59;;;19.57;49.62
47154;BME280;32907;41.412;2.164;2024-01-30T02:28:14;102141.13;;;19.52;50.15
47154;BME280;32907;41.412;2.164;2024-01-30T02:30:46;102150.22;;;19.58;50.28
47154;BME280;32907;41.412;2.164;2024-01-30T02:33:14;102140.16;;;19.59;50.15
47154;BME280;32907;41.412;2.164;2024-01-30T02:35:42;102145.63;;;19.59;50.65
47154;BME280;32907;41.412;2.164;2024-01-30T02:38:11;102131.63;;;19.55;50.37
47154;BME280;32907;41.412;2.164;2024-01-30T02:40:39;102147.25;;;19.60;50.24
47154;BME280;32907;41.412;2.164;2024-01-30T02:43:07;102136.63;;;19.58;50.27
47154;BME280;32907;41.412;2.164;2024-01-30T02:45:35;102135.19;;;19.55;50.48
47154;BME280;32907;41.412;2.164;2024-01-30T02:48:04;102147.50;;;19.58;50.41
47154;BME280;32907;41.412;2.164;2024-01-30T02:50:32;102146.44;;;19.59;50.75
47154;BME280;32907;41.412;2.164;2024-01-30T02:53:00;102149.72;;;19.61;50.71
47154;BME280;32907;41.412;2.164;2024-01-30T02:55:28;102141.00;;;19.59;50.63
47154;BME280;32907;41.412;2.164;2024-01-30T02:57:57;102137.44;;;19.59;50.66
47154;BME280;32907;41.412;2.164;2024-01-30T03:00:25;102134.34;;;19.55;50.66
47154;BME280;32907;41.412;2.164;2024-01-30T03:02:53;102136.00;;;19.56;50.76
47154;BME280;32907;41.412;2.164;2024-01-30T03:05:21;102132.72;;;19.54;50.96
47154;BME280;32907;41.412;2.164;2024-01-30T03:07:50;102133.22;;;19.51;51.03
47154;BME280;32907;41.412;2.164;2024-01-30T03:10:18;102137.59;;;19.52;51.11
47154;BME280;32907;41.412;2.164;2024-01-30T03:12:47;102143.16;;;19.57;50.72
47154;BME280;32907;41.412;2.164;2024-01-30T03:15:15;102154.84;;;19.58;51.03
47154;BME280;32907;41.412;2.164;2024-01-30T03:17:43;102141.25;;;19.58;51.15
47154;BME280;32907;41.412;2.164;2024-01-30T03:20:11;102142.06;;;19.58;50.83
47154;BME280;32907;41.412;2.164;2024-01-30T03:22:39;102138.53;;;19.58;50.78
47154;BME280;32907;41.412;2.164;2024-01-30T03:25:08;102138.53;;;19.58;51.08
47154;BME280;32907;41.412;2.164;2024-01-30T03:27:35;102136.63;;;19.58;51.23
47154;BME280;32907;41.412;2.164;2024-01-30T03:30:04;102139.34;;;19.58;50.85
47154;BME280;32907;41.412;2.164;2024-01-30T03:32:33;102145.63;;;19.59;51.06
47154;BME280;32907;41.412;2.164;2024-01-30T03:35:02;102137.06;;;19.55;50.92
47154;BME280;32907;41.412;2.164;2024-01-30T03:37:30;102143.47;;;19.61;50.95
47154;BME280;32907;41.412;2.164;2024-01-30T03:39:59;102137.75;;;19.62;51.11
47154;BME280;32907;41.412;2.164;2024-01-30T03:42:27;102139.66;;;19.62;50.84
47154;BME280;32907;41.412;2.164;2024-01-30T03:44:56;102132.84;;;19.59;51.19
47154;BME280;32907;41.412;2.164;2024-01-30T03:47:24;102137.19;;;19.60;50.95
47154;BME280;32907;41.412;2.164;2024-01-30T03:49:52;102143.72;;;19.59;51.22
47154;BME280;32907;41.412;2.164;2024-01-30T03:52:21;102143.97;;;19.58;50.90
47154;BME280;32907;41.412;2.164;2024-01-30T03:54:49;102144.78;;;19.58;50.90
47154;BME280;32907;41.412;2.164;2024-01-30T03:57:18;102138.53;;;19.58;50.97
47154;BME280;32907;41.412;2.164;2024-01-30T03:59:46;102136.84;;;19.56;50.76
47154;BME280;32907;41.412;2.164;2024-01-30T04:02:14;102143.34;;;19.55;51.02
47154;BME280;32907;41.412;2.164;2024-01-30T04:04:42;102137.31;;;19.53;50.92
47154;BME280;32907;41.412;2.164;2024-01-30T04:07:10;102131.88;;;19.53;50.90
47154;BME280;32907;41.412;2.164;2024-01-30T04:09:39;102135.69;;;19.52;51.09
47154;BME280;32907;41.412;2.164;2024-01-30T04:12:07;102132.13;;;19.52;50.77
47154;BME280;32907;41.412;2.164;2024-01-30T04:14:37;102118.41;;;19.42;50.85
47154;BME280;32907;41.412;2.164;2024-01-30T04:17:06;102128.34;;;19.53;50.56
47154;BME280;32907;41.412;2.164;2024-01-30T04:19:37;102135.69;;;19.52;50.39
47154;BME280;32907;41.412;2.164;2024-01-30T04:22:06;102126.63;;;19.47;50.61
47154;BME280;32907;41.412;2.164;2024-01-30T04:24:34;102132.06;;;19.47;50.70
47154;BME280;32907;41.412;2.164;2024-01-30T04:27:03;102127.69;;;19.46;50.81
47154;BME280;32907;41.412;2.164;2024-01-30T04:29:32;102127.38;;;19.42;50.58
47154;BME280;32907;41.412;2.164;2024-01-30T04:32:01;102140.47;;;19.45;50.43
47154;BME280;32907;41.412;2.164;2024-01-30T04:34:29;102128.94;;;19.38;50.64
47154;BME280;32907;41.412;2.164;2024-01-30T04:36:57;102126.47;;;19.37;50.58
47154;BME280;32907;41.412;2.164;2024-01-30T04:39:25;102134.06;;;19.35;50.56
47154;BME280;32907;41.412;2.164;2024-01-30T04:41:53;102136.53;;;19.36;50.52
47154;BME280;32907;41.412;2.164;2024-01-30T04:44:22;102136.78;;;19.35;50.61
47154;BME280;32907;41.412;2.164;2024-01-30T04:46:50;102133.22;;;19.34;50.46
47154;BME280;32907;41.412;2.164;2024-01-30T04:49:18;102132.97;;;19.36;50.62
47154;BME280;32907;41.412;2.164;2024-01-30T04:51:46;102124.41;;;19.27;50.49
47154;BME280;32907;41.412;2.164;2024-01-30T04:54:14;102135.84;;;19.29;50.51
47154;BME280;32907;41.412;2.164;2024-01-30T04:56:44;102139.41;;;19.29;50.47
47154;BME280;32907;41.412;2.164;2024-01-30T04:59:13;102138.91;;;19.33;50.45
47154;BME280;32907;41.412;2.164;2024-01-30T05:01:41;102120.28;;;19.24;50.48
47154;BME280;32907;41.412;2.164;2024-01-30T05:04:09;102141.63;;;19.33;50.74
47154;BME280;32907;41.412;2.164;2024-01-30T05:06:43;102146.22;;;19.32;50.93
47154;BME280;32907;41.412;2.164;2024-01-30T05:09:11;102146.00;;;19.34;51.17
47154;BME280;32907;41.412;2.164;2024-01-30T05:11:40;102143.28;;;19.34;51.18
47154;BME280;32907;41.412;2.164;2024-01-30T05:14:09;102148.22;;;19.37;51.03
47154;BME280;32907;41.412;2.164;2024-01-30T05:16:38;102135.53;;;19.25;50.91
47154;BME280;32907;41.412;2.164;2024-01-30T05:19:07;102153.41;;;19.38;50.76
47154;BME280;32907;41.412;2.164;2024-01-30T05:21:35;102146.88;;;19.39;50.91
47154;BME280;32907;41.412;2.164;2024-01-30T05:24:03;102146.88;;;19.39;51.03
47154;BME280;32907;41.412;2.164;2024-01-30T05:26:31;102140.31;;;19.35;51.26
47154;BME280;32907;41.412;2.164;2024-01-30T05:28:59;102149.88;;;19.38;51.50
47154;BME280;32907;41.412;2.164;2024-01-30T05:31:28;102147.72;;;19.40;51.75
47154;BME280;32907;41.412;2.164;2024-01-30T05:33:56;102144.69;;;19.36;51.73
47154;BME280;32907;41.412;2.164;2024-01-30T05:36:24;102137.44;;;19.42;52.03
47154;BME280;32907;41.412;2.164;2024-01-30T05:38:53;102145.25;;;19.38;52.45
47154;BME280;32907;41.412;2.164;2024-01-30T05:41:21;102150.03;;;19.48;52.23
47154;BME280;32907;41.412;2.164;2024-01-30T05:43:49;102157.44;;;19.52;52.24
47154;BME280;32907;41.412;2.164;2024-01-30T05:46:20;102152.84;;;19.53;52.57
47154;BME280;32907;41.412;2.164;2024-01-30T05:48:52;102166.19;;;19.54;52.32
47154;BME280;32907;41.412;2.164;2024-01-30T05:51:20;102168.09;;;19.54;52.25
47154;BME280;32907;41.412;2.164;2024-01-30T05:53:48;102167.50;;;19.52;52.20
47154;BME280;32907;41.412;2.164;2024-01-30T05:56:16;102172.44;;;19.55;52.03
47154;BME280;32907;41.412;2.164;2024-01-30T05:58:44;102173.53;;;19.54;52.39
47154;BME280;32907;41.412;2.164;2024-01-30T06:01:12;102180.63;;;19.55;52.47
47154;BME280;32907;41.412;2.164;2024-01-30T06:03:40;102173.22;;;19.50;52.41
47154;BME280;32907;41.412;2.164;2024-01-30T06:06:09;102176.25;;;19.54;52.23
47154;BME280;32907;41.412;2.164;2024-01-30T06:08:37;102178.97;;;19.54;52.27
47154;BME280;32907;41.412;2.164;2024-01-30T06:11:05;102185.81;;;19.56;52.16
47154;BME280;32907;41.412;2.164;2024-01-30T06:13:33;102186.69;;;19.57;52.40
47154;BME280;32907;41.412;2.164;2024-01-30T06:16:02;102189.16;;;19.59;51.98
47154;BME280;32907;41.412;2.164;2024-01-30T06:18:30;102191.50;;;19.55;52.44
47154;BME280;32907;41.412;2.164;2024-01-30T06:20:59;102189.28;;;19.52;51.81
47154;BME280;32907;41.412;2.164;2024-01-30T06:23:27;102195.78;;;19.51;51.93
47154;BME280;32907;41.412;2.164;2024-01-30T06:25:56;102193.34;;;19.49;52.04
47154;BME280;32907;41.412;2.164;2024-01-30T06:28:24;102200.16;;;19.52;52.17
47154;BME280;32907;41.412;2.164;2024-01-30T06:30:52;102191.91;;;19.47;51.84
47154;BME280;32907;41.412;2.164;2024-01-30T06:33:20;102201.81;;;19.53;52.03
47154;BME280;32907;41.412;2.164;2024-01-30T06:35:49;102206.19;;;19.54;52.17
47154;BME280;32907;41.412;2.164;2024-01-30T06:38:18;102205.47;;;19.59;51.90
47154;BME280;32907;41.412;2.164;2024-01-30T06:40:46;102207.44;;;19.63;51.27
47154;BME280;32907;41.412;2.164;2024-01-30T06:43:14;102207.78;;;19.67;51.60
47154;BME280;32907;41.412;2.164;2024-01-30T06:45:43;102211.38;;;19.72;51.39
47154;BME280;32907;41.412;2.164;2024-01-30T06:48:11;102208.19;;;19.75;50.87
47154;BME280;32907;41.412;2.164;2024-01-30T06:50:40;102207.69;;;19.78;50.20
47154;BME280;32907;41.412;2.164;2024-01-30T06:53:08;102210.41;;;19.78;49.43
47154;BME280;32907;41.412;2.164;2024-01-30T06:55:36;102210.16;;;19.80;49.56
47154;BME280;32907;41.412;2.164;2024-01-30T06:58:05;102213.47;;;19.82;50.00
47154;BME280;32907;41.412;2.164;2024-01-30T07:00:33;102213.78;;;19.86;50.09
47154;BME280;32907;41.412;2.164;2024-01-30T07:03:01;102220.88;;;19.87;49.66
47154;BME280;32907;41.412;2.164;2024-01-30T07:05:29;102227.75;;;19.89;49.49
47154;BME280;32907;41.412;2.164;2024-01-30T07:07:57;102225.84;;;19.90;49.25
47154;BME280;32907;41.412;2.164;2024-01-30T07:10:26;102225.59;;;19.91;49.70
47154;BME280;32907;41.412;2.164;2024-01-30T07:12:55;102232.09;;;19.90;49.62
47154;BME280;32907;41.412;2.164;2024-01-30T07:15:23;102237.28;;;19.92;49.13
47154;BME280;32907;41.412;2.164;2024-01-30T07:17:51;102238.94;;;19.93;49.23
47154;BME280;32907;41.412;2.164;2024-01-30T07:20:19;102231.59;;;19.93;48.89
47154;BME280;32907;41.412;2.164;2024-01-30T07:22:48;102239.75;;;19.93;49.11
47154;BME280;32907;41.412;2.164;2024-01-30T07:25:16;102235.13;;;19.94;48.62
47154;BME280;32907;41.412;2.164;2024-01-30T07:27:45;102244.38;;;19.93;48.46
47154;BME280;32907;41.412;2.164;2024-01-30T07:30:13;102241.41;;;19.94;48.33
47154;BME280;32907;41.412;2.164;2024-01-30T07:32:41;102246.59;;;19.96;48.67
47154;BME280;32907;41.412;2.164;2024-01-30T07:35:10;102237.03;;;19.93;48.38
47154;BME280;32907;41.412;2.164;2024-01-30T07:37:39;102244.38;;;19.93;48.24
47154;BME280;32907;41.412;2.164;2024-01-30T07:40:07;102249.84;;;19.93;48.51
47154;BME280;32907;41.412;2.164;2024-01-30T07:42:36;102252.88;;;19.96;48.60
47154;BME280;32907;41.412;2.164;2024-01-30T07:45:04;102255.38;;;19.98;48.80
47154;BME280;32907;41.412;2.164;2024-01-30T07:47:33;102259.22;;;20.02;48.96
47154;BME280;32907;41.412;2.164;2024-01-30T07:50:02;102253.25;;;20.05;48.73
47154;BME280;32907;41.412;2.164;2024-01-30T07:52:30;102259.88;;;20.09;48.68
47154;BME280;32907;41.412;2.164;2024-01-30T07:54:59;102261.28;;;20.11;48.75
47154;BME280;32907;41.412;2.164;2024-01-30T07:57:27;102265.63;;;20.12;48.44
47154;BME280;32907;41.412;2.164;2024-01-30T07:59:55;102255.09;;;20.16;48.23
47154;BME280;32907;41.412;2.164;2024-01-30T08:02:25;102264.91;;;20.17;48.31
47154;BME280;32907;41.412;2.164;2024-01-30T08:04:53;102265.72;;;20.18;48.36
47154;BME280;32907;41.412;2.164;2024-01-30T08:07:22;102267.38;;;20.19;48.54
47154;BME280;32907;41.412;2.164;2024-01-30T08:09:50;102261.19;;;20.23;49.36
47154;BME280;32907;41.412;2.164;2024-01-30T08:12:18;102271.41;;;20.33;50.76
47154;BME280;32907;41.412;2.164;2024-01-30T08:14:46;102272.88;;;20.40;50.53
47154;BME280;32907;41.412;2.164;2024-01-30T08:17:15;102278.72;;;20.49;51.56
47154;BME280;32907;41.412;2.164;2024-01-30T08:19:43;102279.63;;;20.55;50.03
47154;BME280;32907;41.412;2.164;2024-01-30T08:22:12;102282.94;;;20.57;49.84
47154;BME280;32907;41.412;2.164;2024-01-30T08:24:41;102278.81;;;20.54;49.71
47154;BME280;32907;41.412;2.164;2024-01-30T08:27:09;102278.00;;;20.54;49.63
47154;BME280;32907;41.412;2.164;2024-01-30T08:29:38;102292.44;;;20.54;49.94
47154;BME280;32907;41.412;2.164;2024-01-30T08:32:06;102289.13;;;20.52;49.82
47154;BME280;32907;41.412;2.164;2024-01-30T08:34:35;102292.09;;;20.51;49.76
47154;BME280;32907;41.412;2.164;2024-01-30T08:37:03;102298.13;;;20.53;50.00
47154;BME280;32907;41.412;2.164;2024-01-30T08:39:32;102302.53;;;20.54;50.09
47154;BME280;32907;41.412;2.164;2024-01-30T08:42:00;102306.81;;;20.50;49.99
47154;BME280;32907;41.412;2.164;2024-01-30T08:44:28;102309.88;;;20.53;50.12
47154;BME280;32907;41.412;2.164;2024-01-30T08:46:56;102312.59;;;20.53;50.05
47154;BME280;32907;41.412;2.164;2024-01-30T08:49:26;102308.78;;;20.54;49.92
47154;BME280;32907;41.412;2.164;2024-01-30T08:51:54;102290.38;;;20.45;49.96
47154;BME280;32907;41.412;2.164;2024-01-30T08:54:23;102314.03;;;20.61;50.17
47154;BME280;32907;41.412;2.164;2024-01-30T08:56:51;102313.00;;;20.62;49.94
47154;BME280;32907;41.412;2.164;2024-01-30T08:59:21;102272.53;;;20.37;49.79
47154;BME280;32907;41.412;2.164;2024-01-30T09:01:49;102320.00;;;20.58;49.74
47154;BME280;32907;41.412;2.164;2024-01-30T09:04:37;102312.66;;;20.58;49.84
47154;BME280;32907;41.412;2.164;2024-01-30T09:07:06;102323.06;;;20.61;50.14
47154;BME280;32907;41.412;2.164;2024-01-30T09:09:38;102313.47;;;20.59;49.87
47154;BME280;32907;41.412;2.164;2024-01-30T09:12:08;102323.06;;;20.61;49.74
47154;BME280;32907;41.412;2.164;2024-01-30T09:14:40;102320.81;;;20.58;49.52
47154;BME280;32907;41.412;2.164;2024-01-30T09:17:11;102322.66;;;20.53;49.90
47154;BME280;32907;41.412;2.164;2024-01-30T09:19:40;102302.00;;;20.40;49.64
47154;BME280;32907;41.412;2.164;2024-01-30T09:22:09;102323.00;;;20.56;49.56
47154;BME280;32907;41.412;2.164;2024-01-30T09:24:37;102335.28;;;20.59;49.50
47154;BME280;32907;41.412;2.164;2024-01-30T09:27:05;102327.88;;;20.54;49.31
47154;BME280;32907;41.412;2.164;2024-01-30T09:29:34;102328.53;;;20.45;49.20
47154;BME280;32907;41.412;2.164;2024-01-30T09:32:05;102334.47;;;20.42;49.32
47154;BME280;32907;41.412;2.164;2024-01-30T09:34:34;102314.34;;;20.26;49.40
47154;BME280;32907;41.412;2.164;2024-01-30T09:37:02;102332.81;;;20.40;49.64
47154;BME280;32907;41.412;2.164;2024-01-30T09:39:31;102331.16;;;20.39;49.49
47154;BME280;32907;41.412;2.164;2024-01-30T09:44:38;102328.09;;;20.36;49.44
47154;BME280;32907;41.412;2.164;2024-01-30T09:47:10;102337.69;;;20.38;49.31
47154;BME280;32907;41.412;2.164;2024-01-30T09:49:38;102342.22;;;20.33;49.58
47154;BME280;32907;41.412;2.164;2024-01-30T09:52:07;102343.72;;;20.40;49.68
47154;BME280;32907;41.412;2.164;2024-01-30T09:54:38;102332.25;;;20.38;52.45
47154;BME280;32907;41.412;2.164;2024-01-30T09:57:06;102352.63;;;20.53;50.66
47154;BME280;32907;41.412;2.164;2024-01-30T09:59:35;102351.88;;;20.57;50.48
47154;BME280;32907;41.412;2.164;2024-01-30T10:02:04;102353.28;;;20.60;50.25
47154;BME280;32907;41.412;2.164;2024-01-30T10:04:32;102358.72;;;20.60;50.12
47154;BME280;32907;41.412;2.164;2024-01-30T10:07:04;102354.34;;;20.59;50.12
47154;BME280;32907;41.412;2.164;2024-01-30T10:09:32;102355.78;;;20.61;50.01
47154;BME280;32907;41.412;2.164;2024-01-30T10:12:02;102364.81;;;20.67;49.72
47154;BME280;32907;41.412;2.164;2024-01-30T10:14:31;102365.41;;;20.69;50.12
47154;BME280;32907;41.412;2.164;2024-01-30T10:17:01;102366.56;;;20.73;49.68
47154;BME280;32907;41.412;2.164;2024-01-30T10:19:33;102367.13;;;20.75;49.29
47154;BME280;32907;41.412;2.164;2024-01-30T10:22:01;102366.88;;;20.77;49.31
47154;BME280;32907;41.412;2.164;2024-01-30T10:24:30;102368.78;;;20.76;49.11
47154;BME280;32907;41.412;2.164;2024-01-30T10:26:59;102368.19;;;20.74;48.70
47154;BME280;32907;41.412;2.164;2024-01-30T10:29:28;102344.53;;;20.58;48.60
47154;BME280;32907;41.412;2.164;2024-01-30T10:32:06;102358.38;;;20.73;47.93
47154;BME280;32907;41.412;2.164;2024-01-30T10:34:34;102341.88;;;20.63;49.18
47154;BME280;32907;41.412;2.164;2024-01-30T10:37:10;102356.56;;;20.79;48.54
47154;BME280;32907;41.412;2.164;2024-01-30T10:39:45;102359.28;;;20.79;49.88
47154;BME280;32907;41.412;2.164;2024-01-30T10:42:17;102357.44;;;20.84;49.70
47154;BME280;32907;41.412;2.164;2024-01-30T10:45:07;102352.34;;;20.93;48.89
47154;BME280;32907;41.412;2.164;2024-01-30T10:47:37;102348.31;;;20.95;48.34
47154;BME280;32907;41.412;2.164;2024-01-30T10:50:07;102346.06;;;20.92;47.86
47154;BME280;32907;41.412;2.164;2024-01-30T10:52:39;102345.53;;;20.90;48.03
47154;BME280;32907;41.412;2.164;2024-01-30T10:55:08;102343.31;;;20.87;47.66
47154;BME280;32907;41.412;2.164;2024-01-30T10:57:37;102343.03;;;20.89;47.08
47154;BME280;32907;41.412;2.164;2024-01-30T11:00:08;102341.66;;;20.86;46.86
47154;BME280;32907;41.412;2.164;2024-01-30T11:02:43;102339.75;;;20.87;46.79
47154;BME280;32907;41.412;2.164;2024-01-30T11:05:12;102344.63;;;20.85;46.73
47154;BME280;32907;41.412;2.164;2024-01-30T11:07:40;102335.63;;;20.84;46.35
47154;BME280;32907;41.412;2.164;2024-01-30T11:10:12;102336.69;;;20.83;46.40
47154;BME280;32907;41.412;2.164;2024-01-30T11:12:45;102334.50;;;20.80;46.15
47154;BME280;32907;41.412;2.164;2024-01-30T11:15:17;102323.84;;;20.79;45.84
47154;BME280;32907;41.412;2.164;2024-01-30T11:20:29;102307.59;;;20.67;46.15
47154;BME280;32907;41.412;2.164;2024-01-30T11:23:01;102312.03;;;20.73;46.38
47154;BME280;32907;41.412;2.164;2024-01-30T11:25:35;102296.75;;;20.72;46.88
47154;BME280;32907;41.412;2.164;2024-01-30T11:28:04;102313.81;;;20.84;46.04
47154;BME280;32907;41.412;2.164;2024-01-30T11:30:32;102310.03;;;20.85;45.81
47154;BME280;32907;41.412;2.164;2024-01-30T11:33:11;102300.16;;;20.84;45.32
47154;BME280;32907;41.412;2.164;2024-01-30T11:35:44;102301.84;;;20.85;45.74
47154;BME280;32907;41.412;2.164;2024-01-30T11:38:14;102295.81;;;20.83;45.37
47154;BME280;32907;41.412;2.164;2024-01-30T11:40:43;102291.94;;;20.79;45.50
47154;BME280;32907;41.412;2.164;2024-01-30T11:43:11;102278.16;;;20.69;45.01
47154;BME280;32907;41.412;2.164;2024-01-30T11:45:41;102293.03;;;20.78;44.76
47154;BME280;32907;41.412;2.164;2024-01-30T11:48:12;102292.44;;;20.76;44.32
47154;BME280;32907;41.412;2.164;2024-01-30T11:50:41;102288.59;;;20.72;44.12
47154;BME280;32907;41.412;2.164;2024-01-30T11:53:10;102276.13;;;20.59;43.77
47154;BME280;32907;41.412;2.164;2024-01-30T11:55:39;102281.41;;;20.66;43.02
47154;BME280;32907;41.412;2.164;2024-01-30T11:58:07;102279.47;;;20.61;43.56
47154;BME280;32907;41.412;2.164;2024-01-30T12:00:36;102278.59;;;20.61;43.38
47154;BME280;32907;41.412;2.164;2024-01-30T12:03:04;102271.50;;;20.60;43.32
47154;BME280;32907;41.412;2.164;2024-01-30T12:05:34;102267.41;;;20.57;43.52
47154;BME280;32907;41.412;2.164;2024-01-30T12:08:05;102269.56;;;20.55;43.43
47154;BME280;32907;41.412;2.164;2024-01-30T12:10:33;102245.13;;;20.44;43.28
47154;BME280;32907;41.412;2.164;2024-01-30T12:13:02;102265.75;;;20.56;43.66
47154;BME280;32907;41.412;2.164;2024-01-30T12:15:30;102260.31;;;20.56;43.90
47154;BME280;32907;41.412;2.164;2024-01-30T12:18:06;102253.50;;;20.59;43.49
47154;BME280;32907;41.412;2.164;2024-01-30T12:20:35;102252.44;;;20.60;44.09
47154;BME280;32907;41.412;2.164;2024-01-30T12:23:04;102244.25;;;20.60;43.73
47154;BME280;32907;41.412;2.164;2024-01-30T12:25:33;102225.31;;;20.48;43.23
47154;BME280;32907;41.412;2.164;2024-01-30T12:28:02;102245.06;;;20.60;43.73
47154;BME280;32907;41.412;2.164;2024-01-30T12:30:30;102226.22;;;20.54;43.62
47154;BME280;32907;41.412;2.164;2024-01-30T12:33:00;102232.28;;;20.61;43.46
47154;BME280;32907;41.412;2.164;2024-01-30T12:35:29;102231.44;;;20.60;43.51
47154;BME280;32907;41.412;2.164;2024-01-30T12:38:00;102233.34;;;20.60;43.75
47154;BME280;32907;41.412;2.164;2024-01-30T12:40:28;102231.72;;;20.59;43.93
47154;BME280;32907;41.412;2.164;2024-01-30T12:42:57;102234.75;;;20.62;43.47
47154;BME280;32907;41.412;2.164;2024-01-30T12:45:26;102224.69;;;20.63;43.41
47154;BME280;32907;41.412;2.164;2024-01-30T12:47:54;102227.41;;;20.63;43.88
47154;BME280;32907;41.412;2.164;2024-01-30T12:50:23;102221.97;;;20.63;43.78
47154;BME280;32907;41.412;2.164;2024-01-30T12:52:51;102227.16;;;20.64;43.91
47154;BME280;32907;41.412;2.164;2024-01-30T12:55:19;102221.44;;;20.66;44.26
47154;BME280;32907;41.412;2.164;2024-01-30T12:57:47;102210.22;;;20.62;44.11
47154;BME280;32907;41.412;2.164;2024-01-30T13:00:16;102217.06;;;20.65;44.28
47154;BME280;32907;41.412;2.164;2024-01-30T13:02:45;102215.16;;;20.65;44.43
47154;BME280;32907;41.412;2.164;2024-01-30T13:05:13;102215.69;;;20.62;43.67